Time;durP1;ratioP1;P1;durP2;ratioP2;P2;SDS_P1;SDS_P2;PMS_P1;PMS_P2;Temp;Humidity;BMP_temperature;BMP_pressure;BME280_temperature;BME280_humidity;BME280_pressure;Samples;Min_cycle;Max_cycle;Signal;HPM_P1;HPM_P2
2022/09/15 00:01:35;;;;;;;25.83;12.40;;;;;;;23.22;100.00;100521.31;4998895;28;20094;-49
2022/09/15 00:04:02;;;;;;;21.20;11.70;;;;;;;23.13;100.00;100515.69;5007689;28;21235;-47
2022/09/15 00:06:27;;;;;;;24.57;11.33;;;;;;;23.28;100.00;100524.84;4990986;28;20265;-49
2022/09/15 00:08:53;;;;;;;35.95;13.18;;;;;;;23.40;100.00;100519.00;5001725;28;20280;-48
2022/09/15 00:11:24;;;;;;;22.40;10.75;;;;;;;23.52;100.00;100516.66;5003638;28;20043;-49
2022/09/15 00:13:51;;;;;;;24.17;11.60;;;;;;;23.63;100.00;100520.91;5004276;28;20064;-53
2022/09/15 00:16:18;;;;;;;19.13;10.70;;;;;;;23.41;100.00;100529.63;5005068;28;20271;-49
2022/09/15 00:18:45;;;;;;;21.40;11.37;;;;;;;23.14;100.00;100524.69;4999122;28;20273;-51
2022/09/15 00:21:17;;;;;;;24.10;11.30;;;;;;;23.60;100.00;100510.56;5000450;28;20302;-47
2022/09/15 00:23:43;;;;;;;22.80;11.27;;;;;;;23.59;100.00;100516.31;4997783;28;20037;-51
2022/09/15 00:26:12;;;;;;;22.27;11.60;;;;;;;23.51;100.00;100536.88;5014899;28;20300;-49
2022/09/15 00:28:37;;;;;;;22.03;12.13;;;;;;;23.15;100.00;100526.31;5004657;28;20069;-48
2022/09/15 00:31:06;;;;;;;23.65;10.98;;;;;;;23.10;100.00;100520.91;4992907;28;20031;-50
2022/09/15 00:33:32;;;;;;;19.27;9.77;;;;;;;23.24;100.00;100521.06;4999193;28;20102;-46
2022/09/15 00:36:02;;;;;;;20.55;9.52;;;;;;;23.46;100.00;100517.81;5003343;28;20306;-48
2022/09/15 00:38:27;;;;;;;21.80;10.73;;;;;;;23.18;100.00;100520.28;4997936;28;20035;-47
2022/09/15 00:40:54;;;;;;;16.38;9.18;;;;;;;22.91;100.00;100518.91;4993011;28;20355;-48
2022/09/15 00:43:40;;;;;;;28.27;10.57;;;;;;;23.31;100.00;100527.81;4998733;28;20039;-49
2022/09/15 00:46:06;;;;;;;18.27;9.70;;;;;;;23.42;100.00;100530.44;4998046;28;20324;-47
2022/09/15 00:48:34;;;;;;;25.52;9.43;;;;;;;23.04;100.00;100526.41;4996852;28;20324;-52
2022/09/15 00:51:03;;;;;;;22.13;11.43;;;;;;;23.61;100.00;100525.00;4992845;28;20041;-48
2022/09/15 00:53:31;;;;;;;27.70;11.50;;;;;;;23.70;100.00;100519.72;5001021;28;20274;-47
2022/09/15 00:55:59;;;;;;;19.27;10.30;;;;;;;23.63;100.00;100517.34;5012790;28;20040;-46
2022/09/15 00:58:51;;;;;;;21.00;9.47;;;;;;;23.42;100.00;100520.34;4997686;28;20064;-47
2022/09/15 01:01:17;;;;;;;22.17;10.13;;;;;;;22.76;100.00;100515.22;4997305;28;20277;-50
2022/09/15 01:03:42;;;;;;;26.38;10.23;;;;;;;22.89;100.00;100513.72;4998068;28;20271;-49
2022/09/15 01:06:15;;;;;;;21.27;10.07;;;;;;;22.88;100.00;100523.00;4997820;28;20031;-50
2022/09/15 01:08:49;;;;;;;17.97;9.07;;;;;;;23.11;100.00;100522.53;5006727;28;20103;-48
2022/09/15 01:11:16;;;;;;;19.03;9.97;;;;;;;23.27;100.00;100524.03;5002472;28;20312;-47
2022/09/15 01:13:43;;;;;;;26.25;9.93;;;;;;;22.98;100.00;100522.09;4998425;28;20261;-50
2022/09/15 01:16:44;;;;;;;24.20;10.90;;;;;;;22.75;100.00;100519.03;5003887;28;20042;-50
2022/09/15 01:19:37;;;;;;;23.17;9.37;;;;;;;23.03;100.00;100515.81;4997592;28;20264;-47
2022/09/15 01:22:25;;;;;;;19.97;10.13;;;;;;;22.86;100.00;100513.50;5006997;28;20268;-49
2022/09/15 01:25:08;;;;;;;21.27;9.53;;;;;;;23.00;100.00;100514.44;4997496;28;20272;-48
2022/09/15 01:27:58;;;;;;;20.07;9.00;;;;;;;23.22;100.00;100523.25;5001375;28;20300;-50
2022/09/15 01:30:25;;;;;;;21.27;8.73;;;;;;;23.39;100.00;100520.09;5009496;28;20332;-47
2022/09/15 01:33:04;;;;;;;17.48;8.60;;;;;;;23.21;100.00;100519.69;5012966;28;20265;-47
2022/09/15 01:35:48;;;;;;;15.40;8.87;;;;;;;23.42;100.00;100522.25;4990390;28;20045;-46
2022/09/15 01:38:34;;;;;;;19.57;10.47;;;;;;;22.98;100.00;100519.38;5012397;28;20265;-46
2022/09/15 01:41:08;;;;;;;16.30;8.93;;;;;;;23.00;100.00;100519.91;5018912;28;20271;-48
2022/09/15 01:43:40;;;;;;;19.30;9.27;;;;;;;22.99;100.00;100518.28;5009955;28;20311;-48
2022/09/15 01:46:07;;;;;;;19.60;9.70;;;;;;;23.03;100.00;100519.31;4996568;28;20295;-48
2022/09/15 01:48:35;;;;;;;17.27;8.20;;;;;;;23.06;100.00;100523.41;5001028;28;20119;-50
2022/09/15 01:51:02;;;;;;;17.67;8.77;;;;;;;23.23;100.00;100522.94;5012235;28;20278;-52
2022/09/15 01:53:28;;;;;;;18.80;9.17;;;;;;;23.17;100.00;100529.56;5001673;28;20285;-48
2022/09/15 01:56:04;;;;;;;15.35;7.90;;;;;;;23.15;100.00;100529.03;4995775;28;20033;-49
2022/09/15 01:58:31;;;;;;;17.37;7.97;;;;;;;22.99;100.00;100526.47;5010727;28;20038;-50
2022/09/15 02:01:04;;;;;;;15.87;8.77;;;;;;;23.18;100.00;100520.28;5001475;28;20265;-53
2022/09/15 02:03:43;;;;;;;19.03;7.90;;;;;;;23.27;100.00;100525.97;5017067;28;20262;-55
2022/09/15 02:06:39;;;;;;;18.60;8.53;;;;;;;22.76;100.00;100515.22;4997680;28;20295;-53
2022/09/15 02:09:16;;;;;;;18.90;8.97;;;;;;;23.10;100.00;100518.19;4999835;28;20289;-48
2022/09/15 02:12:09;;;;;;;17.77;8.37;;;;;;;23.16;100.00;100519.75;4997787;28;20320;-48
2022/09/15 02:15:07;;;;;;;20.80;8.20;;;;;;;23.39;100.00;100523.63;4999924;28;20281;-47
2022/09/15 02:17:41;;;;;;;14.20;8.32;;;;;;;23.38;100.00;100529.38;5010349;28;21972;-51
2022/09/15 02:20:14;;;;;;;14.97;7.33;;;;;;;23.33;100.00;100522.88;5002663;28;20057;-48
2022/09/15 02:22:43;;;;;;;15.27;8.03;;;;;;;23.48;100.00;100513.72;4990021;28;20348;-47
2022/09/15 02:25:16;;;;;;;16.80;7.30;;;;;;;23.52;100.00;100513.94;4997185;28;20280;-50
2022/09/15 02:27:48;;;;;;;17.30;8.20;;;;;;;23.55;100.00;100518.00;5010611;28;20282;-48
2022/09/15 02:30:16;;;;;;;14.03;6.90;;;;;;;23.61;100.00;100511.38;5021448;28;20279;-48
2022/09/15 02:32:54;;;;;;;16.57;8.57;;;;;;;23.13;100.00;100523.06;4998095;28;20273;-49
2022/09/15 02:35:22;;;;;;;15.80;7.53;;;;;;;23.49;100.00;100520.78;5006157;28;20289;-46
2022/09/15 02:37:50;;;;;;;24.40;8.33;;;;;;;23.57;100.00;100522.06;5006214;28;20281;-48
2022/09/15 02:40:16;;;;;;;16.93;7.70;;;;;;;23.35;100.00;100525.31;4991663;28;20287;-47
2022/09/15 02:42:54;;;;;;;13.23;7.35;;;;;;;23.08;100.00;100520.41;5012499;28;20264;-47
2022/09/15 02:45:20;;;;;;;16.37;7.73;;;;;;;23.36;100.00;100531.59;4996353;28;20046;-47
2022/09/15 02:47:46;;;;;;;14.48;8.15;;;;;;;23.22;100.00;100536.91;4991405;28;20344;-48
2022/09/15 02:50:11;;;;;;;12.32;7.53;;;;;;;23.37;100.00;100533.22;4991327;28;20031;-52
2022/09/15 02:52:37;;;;;;;18.05;7.13;;;;;;;23.48;100.00;100541.00;4990453;28;20121;-52
2022/09/15 02:55:03;;;;;;;13.32;8.02;;;;;;;23.59;100.00;100540.88;5004174;28;20030;-49
2022/09/15 02:57:29;;;;;;;14.93;7.93;;;;;;;23.54;100.00;100547.22;5018816;28;20094;-46
2022/09/15 03:00:13;;;;;;;17.73;7.40;;;;;;;23.41;100.00;100545.19;5015817;28;20268;-48
2022/09/15 03:02:40;;;;;;;13.10;7.70;;;;;;;23.15;100.00;100543.47;5007768;28;20035;-49
2022/09/15 03:05:07;;;;;;;18.87;8.07;;;;;;;23.44;100.00;100544.59;5000158;28;20265;-51
2022/09/15 03:07:35;;;;;;;11.90;7.47;;;;;;;23.34;100.00;100543.63;5007266;28;20038;-48
2022/09/15 03:10:01;;;;;;;10.87;7.27;;;;;;;23.64;100.00;100557.19;4999759;28;20306;-51
2022/09/15 03:12:27;;;;;;;12.35;7.15;;;;;;;23.60;100.00;100548.78;5025552;28;20341;-49
2022/09/15 03:14:52;;;;;;;17.43;8.27;;;;;;;23.48;100.00;100551.09;5027767;28;20037;-48
2022/09/15 03:17:17;;;;;;;13.20;7.73;;;;;;;23.55;100.00;100551.56;5018273;28;20043;-50
2022/09/15 03:19:44;;;;;;;15.88;7.72;;;;;;;23.58;100.00;100552.91;4996394;28;20033;-50
2022/09/15 03:22:09;;;;;;;12.00;7.47;;;;;;;23.58;100.00;100551.00;4996065;28;20042;-48
2022/09/15 03:24:36;;;;;;;;;;;;;;;23.46;100.00;100554.13;5025772;28;20054;-50
2022/09/15 03:27:02;;;;;;;13.90;7.73;;;;;;;23.60;100.00;100554.25;5015038;28;19920;-47
2022/09/15 03:29:28;;;;;;;17.15;8.48;;;;;;;23.40;100.00;100555.25;5010059;28;20355;-50
2022/09/15 03:31:53;;;;;;;12.03;6.93;;;;;;;23.08;100.00;100558.56;5014461;28;20050;-52
2022/09/15 03:34:19;;;;;;;12.40;7.75;;;;;;;23.54;100.00;100554.59;5013321;28;20079;-47
2022/09/15 03:36:45;;;;;;;15.25;6.70;;;;;;;23.48;100.00;100554.66;5030125;28;20081;-52
2022/09/15 03:39:11;;;;;;;13.45;6.88;;;;;;;23.55;100.00;100548.84;5002446;28;20042;-52
2022/09/15 03:41:37;;;;;;;13.33;7.57;;;;;;;23.31;100.00;100555.09;5027447;28;20026;-52
2022/09/15 03:44:03;;;;;;;14.52;7.10;;;;;;;23.48;100.00;100562.00;5016638;28;20374;-48
2022/09/15 03:46:29;;;;;;;10.90;6.90;;;;;;;23.56;100.00;100555.09;5016228;28;20043;-51
2022/09/15 03:48:54;;;;;;;14.35;7.40;;;;;;;23.48;100.00;100551.09;4987628;28;20043;-53
2022/09/15 03:51:20;;;;;;;15.43;7.95;;;;;;;23.59;100.00;100555.34;5007389;28;20033;-52
2022/09/15 03:53:46;;;;;;;13.05;7.22;;;;;;;23.52;100.00;100565.78;4987583;28;20058;-54
2022/09/15 03:56:31;;;;;;;9.95;6.78;;;;;;;23.56;100.00;100564.13;4978110;28;20054;-50
2022/09/15 03:59:02;;;;;;;12.37;6.57;;;;;;;23.55;100.00;100562.50;4995008;28;20031;-49
2022/09/15 04:01:29;;;;;;;18.77;7.37;;;;;;;23.46;100.00;100562.31;4992436;28;20263;-48
2022/09/15 04:03:55;;;;;;;17.90;6.83;;;;;;;23.49;100.00;100556.28;5012564;28;20279;-50
2022/09/15 04:06:22;;;;;;;13.52;6.28;;;;;;;23.59;100.00;100566.25;5009731;28;20037;-51
2022/09/15 04:08:49;;;;;;;13.53;6.33;;;;;;;23.62;100.00;100568.41;5004782;28;20039;-49
2022/09/15 04:11:17;;;;;;;12.73;6.87;;;;;;;23.55;100.00;100573.41;4975086;28;20031;-49
2022/09/15 04:13:43;;;;;;;18.67;9.37;;;;;;;23.50;100.00;100565.25;4979127;28;20297;-48
2022/09/15 04:16:12;;;;;;;26.30;12.68;;;;;;;23.57;100.00;100567.66;5003534;28;20053;-51
2022/09/15 04:18:38;;;;;;;43.10;22.60;;;;;;;23.82;100.00;100554.81;4984462;28;20038;-54
2022/09/15 04:21:06;;;;;;;34.67;17.27;;;;;;;23.78;100.00;100566.31;4984821;28;20333;-54
2022/09/15 04:23:32;;;;;;;11.17;6.43;;;;;;;23.39;100.00;100561.03;4990743;28;20063;-54
2022/09/15 04:26:00;;;;;;;38.28;18.38;;;;;;;23.62;100.00;100562.94;4982599;28;20056;-52
2022/09/15 04:28:28;;;;;;;29.70;13.70;;;;;;;23.61;100.00;100560.50;4991593;28;20046;-53
2022/09/15 04:31:04;;;;;;;14.37;6.43;;;;;;;23.49;100.00;100559.00;4996340;28;20035;-52
2022/09/15 04:33:29;;;;;;;19.63;11.10;;;;;;;23.76;100.00;100551.34;4999644;28;20030;-50
2022/09/15 04:35:59;;;;;;;48.70;23.87;;;;;;;23.75;100.00;100544.22;5006362;28;20042;-51
2022/09/15 04:38:25;;;;;;;52.63;25.73;;;;;;;23.60;100.00;100548.78;4998936;28;20270;-52
2022/09/15 04:40:51;;;;;;;17.87;7.63;;;;;;;23.70;100.00;100538.84;4975813;28;20042;-55
2022/09/15 04:43:16;;;;;;;36.83;16.40;;;;;;;23.48;100.00;100551.91;5007077;28;20044;-54
2022/09/15 04:45:42;;;;;;;58.40;25.20;;;;;;;23.72;100.00;100539.34;5013919;28;20029;-52
2022/09/15 04:48:07;;;;;;;64.25;30.27;;;;;;;23.73;100.00;100551.91;4984479;28;20055;-51
2022/09/15 04:50:33;;;;;;;41.37;19.60;;;;;;;23.72;100.00;100544.81;4992354;28;20114;-54
2022/09/15 04:53:00;;;;;;;56.30;27.47;;;;;;;23.23;100.00;100552.97;4993361;28;20084;-52
2022/09/15 04:55:26;;;;;;;25.50;11.03;;;;;;;23.37;100.00;100557.78;4996838;28;20039;-53
2022/09/15 04:57:51;;;;;;;28.67;12.23;;;;;;;23.45;100.00;100554.41;5011569;28;20277;-53
2022/09/15 05:00:17;;;;;;;8.73;4.38;;;;;;;23.34;100.00;100554.53;5020469;28;20293;-50
2022/09/15 05:02:44;;;;;;;15.43;8.02;;;;;;;23.68;100.00;100544.59;5020672;28;20046;-49
2022/09/15 05:05:10;;;;;;;21.53;10.00;;;;;;;23.78;100.00;100549.94;5024221;28;20056;-52
2022/09/15 05:07:35;;;;;;;33.40;12.75;;;;;;;23.78;100.00;100560.84;5017432;28;20026;-52
2022/09/15 05:10:01;;;;;;;15.35;6.88;;;;;;;23.58;100.00;100567.38;5003194;28;20046;-51
2022/09/15 05:12:26;;;;;;;17.20;4.78;;;;;;;23.65;100.00;100568.94;5000662;28;20090;-54
2022/09/15 05:14:52;;;;;;;9.52;3.17;;;;;;;23.32;100.00;100564.91;5012879;28;20043;-51
2022/09/15 05:17:18;;;;;;;10.85;4.00;;;;;;;23.54;100.00;100566.31;5001043;28;20108;-51
2022/09/15 05:19:43;;;;;;;7.57;3.13;;;;;;;23.30;100.00;100567.13;5012958;28;20063;-49
2022/09/15 05:22:09;;;;;;;10.80;2.75;;;;;;;23.22;100.00;100564.97;5017315;28;20039;-51
2022/09/15 05:24:34;;;;;;;8.68;3.10;;;;;;;23.36;100.00;100569.78;5011932;28;20064;-50
2022/09/15 05:27:00;;;;;;;11.27;4.18;;;;;;;23.00;100.00;100568.19;5006923;28;20039;-49
2022/09/15 05:29:25;;;;;;;7.37;2.27;;;;;;;22.98;100.00;100565.72;4994320;28;20054;-53
2022/09/15 05:31:51;;;;;;;11.23;3.40;;;;;;;23.18;100.00;100558.47;5002239;28;20039;-48
2022/09/15 05:34:17;;;;;;;13.80;2.80;;;;;;;22.95;100.00;100549.94;4992547;28;20035;-48
2022/09/15 05:36:42;;;;;;;6.32;3.22;;;;;;;23.14;100.00;100560.16;5008233;28;20054;-49
2022/09/15 05:39:07;;;;;;;3.77;1.57;;;;;;;23.16;100.00;100557.94;5007591;28;20034;-52
2022/09/15 05:41:33;;;;;;;8.45;2.70;;;;;;;23.29;100.00;100562.75;5000356;28;20030;-48
2022/09/15 05:43:59;;;;;;;11.55;2.22;;;;;;;23.52;100.00;100562.25;4990774;28;20077;-52
2022/09/15 05:46:25;;;;;;;9.60;2.35;;;;;;;23.63;100.00;100553.66;4998664;28;20035;-49
2022/09/15 05:48:52;;;;;;;;;;;;;;;23.63;100.00;100559.13;4991478;28;20059;-52
2022/09/15 05:51:19;;;;;;;9.15;2.83;;;;;;;23.65;100.00;100560.75;4990033;28;19918;-52
2022/09/15 05:53:45;;;;;;;7.80;2.50;;;;;;;23.62;100.00;100568.41;5007620;28;20038;-47
2022/09/15 05:56:12;;;;;;;6.78;2.50;;;;;;;23.59;100.00;100569.00;4992732;28;20061;-47
2022/09/15 05:58:39;;;;;;;9.17;2.27;;;;;;;23.14;100.00;100569.13;5007392;28;20031;-50
2022/09/15 06:01:07;;;;;;;8.80;2.27;;;;;;;23.14;100.00;100576.50;5006945;28;20025;-49
2022/09/15 06:03:34;;;;;;;6.27;2.27;;;;;;;23.24;100.00;100584.59;5007684;28;20034;-50
2022/09/15 06:06:04;;;;;;;14.03;2.50;;;;;;;23.29;100.00;100576.38;5004783;28;20349;-53
2022/09/15 06:08:38;;;;;;;6.43;1.57;;;;;;;23.72;100.00;100581.13;4999782;28;20038;-53
2022/09/15 06:11:12;;;;;;;4.47;1.60;;;;;;;23.67;100.00;100583.94;4999396;28;20060;-52
2022/09/15 06:13:38;;;;;;;12.67;2.73;;;;;;;23.43;100.00;100590.19;5005714;28;20075;-52
2022/09/15 06:16:13;;;;;;;10.25;2.75;;;;;;;23.74;100.00;100602.66;5011658;28;20052;-50
2022/09/15 06:18:39;;;;;;;11.17;1.70;;;;;;;23.82;100.00;100603.94;5007419;28;20031;-49
2022/09/15 06:21:07;;;;;;;5.40;2.67;;;;;;;23.94;100.00;100600.81;4999578;28;20027;-47
2022/09/15 06:23:34;;;;;;;11.73;1.40;;;;;;;23.67;100.00;100607.66;5003891;28;20081;-50
2022/09/15 06:26:07;;;;;;;7.05;1.58;;;;;;;23.19;100.00;100614.66;5001122;28;20043;-53
2022/09/15 06:28:32;;;;;;;9.07;1.63;;;;;;;23.52;100.00;100605.91;4989234;28;20042;-49
2022/09/15 06:30:58;;;;;;;7.43;1.88;;;;;;;23.53;100.00;100611.09;4998536;28;20027;-49
2022/09/15 06:33:23;;;;;;;9.57;1.58;;;;;;;23.53;100.00;100613.81;4998554;28;20090;-48
2022/09/15 06:35:49;;;;;;;8.07;2.10;;;;;;;23.68;100.00;100617.47;4992283;28;20061;-48
2022/09/15 06:38:14;;;;;;;5.40;2.08;;;;;;;24.14;100.00;100610.72;4995430;28;20273;-50
2022/09/15 06:40:40;;;;;;;6.90;1.97;;;;;;;23.82;100.00;100618.41;4993659;28;20059;-50
2022/09/15 06:43:05;;;;;;;4.90;1.67;;;;;;;24.16;100.00;100612.03;4989839;28;20039;-54
2022/09/15 06:45:31;;;;;;;6.65;1.50;;;;;;;23.91;100.00;100613.94;4989700;28;20047;-52
2022/09/15 06:47:56;;;;;;;6.73;1.73;;;;;;;24.16;100.00;100612.03;5019196;28;20102;-50
2022/09/15 06:50:22;;;;;;;7.28;1.85;;;;;;;24.44;100.00;100617.66;5001332;28;20257;-50
2022/09/15 06:52:47;;;;;;;9.68;1.95;;;;;;;24.22;100.00;100612.78;4998733;28;20047;-48
2022/09/15 06:55:13;;;;;;;6.07;1.70;;;;;;;24.47;100.00;100630.75;5011782;28;20105;-48
2022/09/15 06:57:38;;;;;;;7.90;2.17;;;;;;;24.58;100.00;100631.41;5016886;28;20038;-48
2022/09/15 07:00:05;;;;;;;9.55;2.83;;;;;;;24.20;100.00;100626.72;5019588;28;20288;-51
2022/09/15 07:02:31;;;;;;;6.00;2.03;;;;;;;24.46;100.00;100629.13;4991465;28;20068;-48
2022/09/15 07:04:56;;;;;;;13.65;1.90;;;;;;;24.57;100.00;100632.53;5000032;28;20054;-50
2022/09/15 07:07:22;;;;;;;4.72;2.03;;;;;;;24.87;100.00;100637.84;5009232;28;20046;-47
2022/09/15 07:09:48;;;;;;;6.85;2.05;;;;;;;24.66;100.00;100642.78;5003616;28;20035;-47
2022/09/15 07:12:14;;;;;;;6.35;1.88;;;;;;;24.69;100.00;100637.56;5020463;28;20039;-48
2022/09/15 07:14:39;;;;;;;4.68;1.73;;;;;;;24.81;100.00;100636.31;5004693;28;20038;-49
2022/09/15 07:17:05;;;;;;;14.13;2.42;;;;;;;24.66;100.00;100640.06;5007630;28;20041;-50
2022/09/15 07:19:30;;;;;;;8.60;2.20;;;;;;;24.86;100.00;100647.16;5001723;28;20095;-48
2022/09/15 07:21:56;;;;;;;14.27;2.38;;;;;;;24.62;100.00;100650.75;5012835;28;20124;-49
2022/09/15 07:24:21;;;;;;;9.60;1.90;;;;;;;24.72;100.00;100647.91;4991553;28;20058;-47
2022/09/15 07:26:46;;;;;;;8.13;1.88;;;;;;;24.95;100.00;100653.59;5005135;28;20062;-47
2022/09/15 07:29:12;;;;;;;9.40;1.73;;;;;;;25.06;100.00;100649.56;4994557;28;20069;-51
2022/09/15 07:31:38;;;;;;;6.03;1.70;;;;;;;25.22;100.00;100649.34;4991516;28;20031;-48
2022/09/15 07:34:04;;;;;;;12.30;2.65;;;;;;;25.01;100.00;100662.50;4998377;28;20039;-51
2022/09/15 07:36:30;;;;;;;9.30;2.27;;;;;;;24.48;100.00;100664.34;4998249;28;20027;-50
2022/09/15 07:38:56;;;;;;;4.63;1.80;;;;;;;24.91;100.00;100663.50;5002938;28;20039;-47
2022/09/15 07:41:27;;;;;;;8.40;2.53;;;;;;;25.14;100.00;100661.78;5020773;28;20141;-50
2022/09/15 07:43:55;;;;;;;6.93;2.20;;;;;;;25.16;100.00;100664.22;5007698;28;20033;-47
2022/09/15 07:46:22;;;;;;;9.03;2.03;;;;;;;25.15;100.00;100657.13;5000937;28;20034;-53
2022/09/15 07:48:49;;;;;;;7.70;1.87;;;;;;;25.11;100.00;100669.75;5014724;28;20110;-48
2022/09/15 07:51:16;;;;;;;14.60;2.43;;;;;;;24.94;100.00;100670.28;4998719;28;20098;-49
2022/09/15 07:53:43;;;;;;;10.53;1.80;;;;;;;25.11;100.00;100676.06;5001070;28;20031;-51
2022/09/15 07:56:09;;;;;;;10.30;2.93;;;;;;;25.12;100.00;100676.84;5001708;28;20031;-49
2022/09/15 07:58:35;;;;;;;;;;;;;;;25.15;100.00;100684.47;5009810;28;20037;-50
2022/09/15 08:01:03;;;;;;;11.93;2.23;;;;;;;25.57;100.00;100690.91;4992498;28;19925;-54
2022/09/15 08:03:29;;;;;;;7.33;1.80;;;;;;;25.57;100.00;100688.16;4990292;28;20026;-48
2022/09/15 08:05:58;;;;;;;14.75;3.47;;;;;;;25.50;100.00;100693.22;4996564;28;20048;-48
2022/09/15 08:08:24;;;;;;;11.37;2.27;;;;;;;25.70;100.00;100700.25;5013496;28;20040;-49
2022/09/15 08:10:50;;;;;;;6.88;1.90;;;;;;;25.50;100.00;100698.69;5009244;28;20061;-48
2022/09/15 08:13:15;;;;;;;10.05;1.80;;;;;;;25.92;100.00;100696.84;5008550;28;20043;-50
2022/09/15 08:15:41;;;;;;;10.50;2.00;;;;;;;26.38;97.58;100716.25;5010450;28;20042;-50
2022/09/15 08:18:06;;;;;;;6.03;1.90;;;;;;;26.46;95.91;100712.78;5004340;28;20039;-53
2022/09/15 08:20:32;;;;;;;5.55;1.75;;;;;;;26.23;94.53;100713.81;5001196;28;20109;-51
2022/09/15 08:22:58;;;;;;;;;;;;;;;25.95;97.36;100719.28;5002756;28;20030;-48
2022/09/15 08:25:23;;;;;;;6.47;1.87;;;;;;;25.95;98.04;100716.53;5006753;28;19917;-51
2022/09/15 08:27:49;;;;;;;16.35;2.63;;;;;;;25.67;99.04;100713.75;5013324;28;20033;-48
2022/09/15 08:30:14;;;;;;;41.95;20.25;;;;;;;25.60;100.00;100720.44;5005310;28;20043;-51
2022/09/15 08:32:40;;;;;;;18.15;8.15;;;;;;;25.66;98.99;100720.34;5009996;28;20036;-52
2022/09/15 08:35:07;;;;;;;8.73;3.08;;;;;;;25.57;100.00;100731.97;4994371;28;20039;-48
2022/09/15 08:37:33;;;;;;;17.27;8.80;;;;;;;25.61;99.13;100733.03;4992525;28;20026;-49
2022/09/15 08:39:59;;;;;;;;;;;;;;;25.74;100.00;100734.16;5004882;28;20037;-52
2022/09/15 08:42:27;;;;;;;5.47;2.10;;;;;;;25.97;99.11;100731.56;4998171;28;19976;-49
2022/09/15 08:45:00;;;;;;;5.97;1.87;;;;;;;25.80;98.46;100739.53;4998996;28;20058;-50
2022/09/15 08:47:26;;;;;;;7.90;2.07;;;;;;;25.80;99.52;100745.03;4992295;28;20078;-53
2022/09/15 08:50:04;;;;;;;7.80;2.15;;;;;;;26.06;95.78;100746.16;5021843;28;20057;-51
2022/09/15 08:52:51;;;;;;;8.50;2.20;;;;;;;26.27;93.94;100751.28;5001062;28;20098;-46
2022/09/15 08:55:35;;;;;;;7.95;2.10;;;;;;;26.47;90.82;100758.28;4996151;28;20110;-52
2022/09/15 08:58:01;;;;;;;4.83;2.03;;;;;;;26.63;88.12;100758.78;4994582;28;20030;-54
2022/09/15 09:00:28;;;;;;;;;;;;;;;26.39;85.59;100758.19;4993049;28;20028;-47
2022/09/15 09:03:18;;;;;;;4.93;2.00;;;;;;;26.44;85.14;100760.84;5007867;28;19920;-49
2022/09/15 09:05:46;;;;;;;6.80;1.70;;;;;;;26.45;84.44;100754.25;5005611;28;20055;-48
2022/09/15 09:08:46;;;;;;;7.70;1.70;;;;;;;26.28;82.19;100765.78;4993132;28;20031;-52
2022/09/15 09:11:43;;;;;;;3.73;1.60;;;;;;;26.32;82.66;100769.56;5000107;28;20058;-48
2022/09/15 09:14:20;;;;;;;2.97;1.20;;;;;;;26.49;82.18;100764.25;5015415;28;20036;-50
2022/09/15 09:17:23;;;;;;;4.77;1.00;;;;;;;26.69;81.01;100764.97;4992403;28;20042;-54
2022/09/15 09:20:09;;;;;;;8.57;1.17;;;;;;;26.57;79.83;100770.16;4923354;28;20051;-52
2022/09/15 09:22:40;;;;;;;10.67;2.10;;;;;;;27.09;78.98;100769.09;4996119;28;20070;-49
2022/09/15 09:25:12;;;;;;;5.83;0.87;;;;;;;26.73;77.32;100770.66;5011426;28;20069;-50
2022/09/15 09:27:38;;;;;;;9.27;1.30;;;;;;;26.95;78.20;100769.91;4991763;28;20161;-51
2022/09/15 09:30:24;;;;;;;;;;;;;;;27.02;77.90;100764.84;4993542;28;20038;-50
2022/09/15 09:33:21;;;;;;;12.07;5.20;;;;;;;27.25;76.57;100781.34;4990942;28;19918;-52
2022/09/15 09:35:51;;;;;;;16.23;6.87;;;;;;;26.53;78.02;100774.66;4990312;28;20054;-50
2022/09/15 09:38:24;;;;;;;6.70;2.10;;;;;;;26.29;78.95;100778.38;4999063;28;20049;-49
2022/09/15 09:40:49;;;;;;;10.13;3.90;;;;;;;25.87;84.24;100776.38;5012590;28;20028;-49
2022/09/15 09:43:16;;;;;;;8.50;2.20;;;;;;;26.53;81.28;100785.63;5005228;28;20038;-52
2022/09/15 09:45:42;;;;;;;;;;;;;;;26.63;78.95;100782.66;5013178;28;20032;-50
2022/09/15 09:48:17;;;;;;;6.47;1.57;;;;;;;26.76;80.31;100781.00;5008960;28;19957;-50
2022/09/15 09:50:43;;;;;;;6.00;2.27;;;;;;;26.14;84.99;100776.72;5004927;28;20096;-51
2022/09/15 09:53:32;;;;;;;6.87;1.63;;;;;;;26.67;81.44;100780.91;5014966;28;20053;-47
2022/09/15 09:56:14;;;;;;;5.90;1.33;;;;;;;26.61;81.87;100779.41;5028305;28;20044;-49
2022/09/15 09:58:40;;;;;;;5.23;1.40;;;;;;;26.84;80.81;100776.72;4992611;28;20042;-50
2022/09/15 10:01:15;;;;;;;5.28;1.55;;;;;;;26.46;82.95;100777.78;5018235;28;20060;-49
2022/09/15 10:03:42;;;;;;;3.40;1.13;;;;;;;26.82;82.43;100770.75;4989175;28;20031;-52
2022/09/15 10:06:10;;;;;;;7.53;1.27;;;;;;;26.19;82.09;100773.94;5021778;28;20078;-51
2022/09/15 10:08:37;;;;;;;5.37;1.57;;;;;;;26.77;81.19;100775.22;4989256;28;20098;-51
2022/09/15 10:11:09;;;;;;;6.23;1.57;;;;;;;26.53;83.32;100769.16;5003858;28;20043;-48
2022/09/15 10:13:35;;;;;;;9.57;1.60;;;;;;;26.52;81.23;100775.75;5010411;28;20091;-49
2022/09/15 10:16:05;;;;;;;6.67;1.10;;;;;;;26.51;78.72;100772.19;5007945;28;20039;-51
2022/09/15 10:18:32;;;;;;;3.10;0.90;;;;;;;26.71;76.35;100767.41;5002866;28;20055;-53
2022/09/15 10:20:58;;;;;;;15.03;7.67;;;;;;;26.89;77.91;100762.94;4989804;28;20035;-52
2022/09/15 10:23:29;;;;;;;11.33;4.20;;;;;;;26.61;75.28;100762.94;4988041;28;20093;-52
2022/09/15 10:26:16;;;;;;;6.80;1.90;;;;;;;26.77;75.00;100766.19;4997177;28;20038;-51
2022/09/15 10:28:43;;;;;;;3.20;1.23;;;;;;;26.94;75.37;100757.31;4990889;28;20040;-53
2022/09/15 10:31:09;;;;;;;4.40;1.13;;;;;;;26.56;79.26;100757.59;4993719;28;20035;-52
2022/09/15 10:33:46;;;;;;;9.17;1.60;;;;;;;27.03;79.01;100752.75;4992197;28;20035;-50
2022/09/15 10:36:16;;;;;;;22.33;9.43;;;;;;;26.86;79.31;100767.09;4995853;28;20046;-46
2022/09/15 10:38:58;;;;;;;7.90;3.20;;;;;;;27.09;78.34;100755.34;4999814;28;20056;-51
2022/09/15 10:41:29;;;;;;;5.30;1.30;;;;;;;27.28;76.97;100757.94;5001021;28;20037;-52
2022/09/15 10:44:21;;;;;;;8.83;1.47;;;;;;;26.74;78.45;100753.88;4987750;28;20089;-54
2022/09/15 10:46:59;;;;;;;11.27;3.23;;;;;;;27.33;76.04;100750.38;4997363;28;20107;-53
2022/09/15 10:49:51;;;;;;;7.30;2.43;;;;;;;28.40;73.86;100760.88;5004856;28;20039;-54
2022/09/15 10:52:54;;;;;;;6.13;1.20;;;;;;;28.85;67.87;100748.03;4984069;28;20030;-51
2022/09/15 10:55:28;;;;;;;8.47;1.80;;;;;;;29.83;63.65;100741.28;4993975;28;20125;-51
2022/09/15 10:58:19;;;;;;;3.60;1.30;;;;;;;30.41;60.34;100755.47;4994195;28;20035;-53
2022/09/15 11:01:08;;;;;;;5.60;1.40;;;;;;;31.12;56.28;100753.06;5005081;28;20043;-51
2022/09/15 11:03:45;;;;;;;11.37;1.80;;;;;;;31.23;56.26;100752.69;4988699;28;20030;-48
2022/09/15 11:06:24;;;;;;;5.27;1.60;;;;;;;31.26;55.56;100750.06;4995818;28;20038;-53
2022/09/15 11:09:14;;;;;;;8.35;1.08;;;;;;;30.59;47.86;100758.97;4996159;28;20025;-50
2022/09/15 11:12:06;;;;;;;5.60;1.25;;;;;;;31.36;49.25;100761.81;5000463;28;20107;-52
2022/09/15 11:14:50;;;;;;;6.13;1.15;;;;;;;30.19;48.93;100757.38;4999258;28;20060;-48
2022/09/15 11:17:43;;;;;;;5.57;1.55;;;;;;;30.02;49.16;100758.28;4999731;28;20073;-52
2022/09/15 11:20:29;;;;;;;3.78;1.30;;;;;;;30.68;45.63;100766.41;5002608;28;20067;-47
2022/09/15 11:23:20;;;;;;;6.80;1.58;;;;;;;30.61;44.91;100766.94;5000348;28;20043;-51
2022/09/15 11:25:54;;;;;;;38.63;16.48;;;;;;;30.93;48.61;100764.63;5001144;28;20655;-49
2022/09/15 11:28:31;;;;;;;29.38;13.25;;;;;;;31.51;46.72;100768.69;4990028;28;20039;-47
2022/09/15 11:31:22;;;;;;;32.72;16.33;;;;;;;31.29;45.00;100762.38;5001861;28;20030;-51